sensor_id;sensor_type;location;lat;lon;timestamp;P1;durP1;ratioP1;P2;durP2;ratioP2
11171;SDS011;5642;50.830;12.082;2023-05-07T01:19:25;3.25;;;2.92;;
11171;SDS011;5642;50.830;12.082;2023-05-07T01:22:04;3.33;;;3.03;;
11171;SDS011;5642;50.830;12.082;2023-05-07T01:24:43;2.78;;;2.58;;
11171;SDS011;5642;50.830;12.082;2023-05-07T01:27:16;3.20;;;2.90;;
11171;SDS011;5642;50.830;12.082;2023-05-07T01:29:46;3.13;;;2.83;;
11171;SDS011;5642;50.830;12.082;2023-05-07T01:32:21;3.03;;;2.80;;
11171;SDS011;5642;50.830;12.082;2023-05-07T01:35:09;3.50;;;3.20;;
11171;SDS011;5642;50.830;12.082;2023-05-07T01:37:42;2.95;;;2.75;;
11171;SDS011;5642;50.830;12.082;2023-05-07T01:40:12;3.78;;;2.90;;
11171;SDS011;5642;50.830;12.082;2023-05-07T01:42:43;3.08;;;2.78;;
11171;SDS011;5642;50.830;12.082;2023-05-07T01:45:17;3.08;;;2.75;;
11171;SDS011;5642;50.830;12.082;2023-05-07T01:47:49;2.92;;;2.63;;
11171;SDS011;5642;50.830;12.082;2023-05-07T01:50:25;3.00;;;2.70;;
11171;SDS011;5642;50.830;12.082;2023-05-07T01:52:54;3.40;;;2.85;;
11171;SDS011;5642;50.830;12.082;2023-05-07T01:55:22;2.95;;;2.60;;
11171;SDS011;5642;50.830;12.082;2023-05-07T01:57:54;2.60;;;2.40;;
11171;SDS011;5642;50.830;12.082;2023-05-07T02:00:23;3.00;;;2.70;;
11171;SDS011;5642;50.830;12.082;2023-05-07T02:02:51;2.60;;;2.40;;
11171;SDS011;5642;50.830;12.082;2023-05-07T02:05:22;2.95;;;2.67;;
11171;SDS011;5642;50.830;12.082;2023-05-07T02:07:50;2.80;;;2.35;;
11171;SDS011;5642;50.830;12.082;2023-05-07T02:10:21;2.70;;;2.50;;
11171;SDS011;5642;50.830;12.082;2023-05-07T02:12:48;2.85;;;2.65;;
11171;SDS011;5642;50.830;12.082;2023-05-07T02:15:21;2.42;;;2.22;;
11171;SDS011;5642;50.830;12.082;2023-05-07T02:18:03;2.80;;;2.53;;
11171;SDS011;5642;50.830;12.082;2023-05-07T02:20:36;2.90;;;2.60;;
11171;SDS011;5642;50.830;12.082;2023-05-07T02:23:04;2.92;;;2.63;;
11171;SDS011;5642;50.830;12.082;2023-05-07T02:25:37;2.90;;;2.70;;
11171;SDS011;5642;50.830;12.082;2023-05-07T02:28:09;2.63;;;2.42;;
11171;SDS011;5642;50.830;12.082;2023-05-07T02:30:40;2.60;;;2.40;;
11171;SDS011;5642;50.830;12.082;2023-05-07T02:33:10;2.55;;;2.35;;
11171;SDS011;5642;50.830;12.082;2023-05-07T02:35:40;2.63;;;2.42;;
11171;SDS011;5642;50.830;12.082;2023-05-07T02:38:16;2.53;;;2.33;;
11171;SDS011;5642;50.830;12.082;2023-05-07T02:40:46;3.17;;;2.90;;
11171;SDS011;5642;50.830;12.082;2023-05-07T02:43:14;3.30;;;3.00;;
11171;SDS011;5642;50.830;12.082;2023-05-07T02:45:43;2.97;;;2.70;;
11171;SDS011;5642;50.830;12.082;2023-05-07T02:48:14;3.22;;;2.42;;
11171;SDS011;5642;50.830;12.082;2023-05-07T02:50:47;2.88;;;2.67;;
11171;SDS011;5642;50.830;12.082;2023-05-07T02:53:17;2.83;;;2.63;;
11171;SDS011;5642;50.830;12.082;2023-05-07T02:55:48;3.20;;;2.90;;
11171;SDS011;5642;50.830;12.082;2023-05-07T02:58:17;2.88;;;2.58;;
11171;SDS011;5642;50.830;12.082;2023-05-07T03:00:47;3.40;;;3.10;;
11171;SDS011;5642;50.830;12.082;2023-05-07T03:03:17;2.97;;;2.75;;
11171;SDS011;5642;50.830;12.082;2023-05-07T03:05:49;3.08;;;2.88;;
11171;SDS011;5642;50.830;12.082;2023-05-07T03:08:19;3.28;;;3.03;;
11171;SDS011;5642;50.830;12.082;2023-05-07T03:10:52;3.53;;;3.22;;
11171;SDS011;5642;50.830;12.082;2023-05-07T03:13:23;3.60;;;3.30;;
11171;SDS011;5642;50.830;12.082;2023-05-07T03:15:54;3.83;;;3.47;;
11171;SDS011;5642;50.830;12.082;2023-05-07T03:18:22;3.75;;;3.35;;
11171;SDS011;5642;50.830;12.082;2023-05-07T03:20:53;4.30;;;3.90;;
11171;SDS011;5642;50.830;12.082;2023-05-07T03:23:28;4.50;;;4.05;;
11171;SDS011;5642;50.830;12.082;2023-05-07T03:26:02;4.80;;;4.10;;
11171;SDS011;5642;50.830;12.082;2023-05-07T03:28:32;4.53;;;4.13;;
11171;SDS011;5642;50.830;12.082;2023-05-07T03:31:00;4.65;;;4.25;;
11171;SDS011;5642;50.830;12.082;2023-05-07T03:33:32;5.78;;;4.07;;
11171;SDS011;5642;50.830;12.082;2023-05-07T03:36:01;5.00;;;4.07;;
11171;SDS011;5642;50.830;12.082;2023-05-07T03:38:34;4.85;;;3.97;;
11171;SDS011;5642;50.830;12.082;2023-05-07T03:41:06;4.40;;;4.00;;
11171;SDS011;5642;50.830;12.082;2023-05-07T03:43:35;4.55;;;4.15;;
11171;SDS011;5642;50.830;12.082;2023-05-07T03:46:05;5.05;;;4.13;;
11171;SDS011;5642;50.830;12.082;2023-05-07T03:48:37;4.35;;;3.95;;
11171;SDS011;5642;50.830;12.082;2023-05-07T03:51:08;4.28;;;3.60;;
11171;SDS011;5642;50.830;12.082;2023-05-07T03:53:38;4.20;;;3.80;;
11171;SDS011;5642;50.830;12.082;2023-05-07T03:56:07;4.07;;;3.67;;
11171;SDS011;5642;50.830;12.082;2023-05-07T03:58:40;5.47;;;3.95;;
11171;SDS011;5642;50.830;12.082;2023-05-07T04:01:08;4.78;;;4.13;;
11171;SDS011;5642;50.830;12.082;2023-05-07T04:03:39;4.22;;;3.83;;
11171;SDS011;5642;50.830;12.082;2023-05-07T04:06:09;4.28;;;3.92;;
11171;SDS011;5642;50.830;12.082;2023-05-07T04:08:44;4.47;;;4.07;;
11171;SDS011;5642;50.830;12.082;2023-05-07T04:11:15;4.40;;;4.00;;
11171;SDS011;5642;50.830;12.082;2023-05-07T04:13:47;3.83;;;3.45;;
11171;SDS011;5642;50.830;12.082;2023-05-07T04:16:20;5.60;;;3.75;;
11171;SDS011;5642;50.830;12.082;2023-05-07T04:18:53;3.97;;;3.55;;
11171;SDS011;5642;50.830;12.082;2023-05-07T04:21:21;4.07;;;3.67;;
11171;SDS011;5642;50.830;12.082;2023-05-07T04:23:48;3.90;;;3.50;;
11171;SDS011;5642;50.830;12.082;2023-05-07T04:26:16;4.30;;;3.90;;
11171;SDS011;5642;50.830;12.082;2023-05-07T04:28:46;4.30;;;3.90;;
11171;SDS011;5642;50.830;12.082;2023-05-07T04:31:15;4.50;;;3.88;;
11171;SDS011;5642;50.830;12.082;2023-05-07T04:33:52;4.10;;;3.70;;
11171;SDS011;5642;50.830;12.082;2023-05-07T04:36:21;4.15;;;3.72;;
11171;SDS011;5642;50.830;12.082;2023-05-07T04:38:51;4.45;;;4.05;;
11171;SDS011;5642;50.830;12.082;2023-05-07T04:41:24;4.13;;;3.65;;
11171;SDS011;5642;50.830;12.082;2023-05-07T04:43:56;4.38;;;3.97;;
11171;SDS011;5642;50.830;12.082;2023-05-07T04:46:26;4.43;;;4.03;;
11171;SDS011;5642;50.830;12.082;2023-05-07T04:48:57;4.45;;;4.05;;
11171;SDS011;5642;50.830;12.082;2023-05-07T04:51:25;4.57;;;4.18;;
11171;SDS011;5642;50.830;12.082;2023-05-07T04:53:53;4.95;;;4.43;;
11171;SDS011;5642;50.830;12.082;2023-05-07T04:56:20;4.53;;;4.10;;
11171;SDS011;5642;50.830;12.082;2023-05-07T04:58:52;4.97;;;4.25;;
11171;SDS011;5642;50.830;12.082;2023-05-07T05:01:23;4.68;;;4.28;;
11171;SDS011;5642;50.830;12.082;2023-05-07T05:03:52;5.07;;;4.57;;
11171;SDS011;5642;50.830;12.082;2023-05-07T05:06:21;5.57;;;4.70;;
11171;SDS011;5642;50.830;12.082;2023-05-07T05:08:50;5.00;;;4.50;;
11171;SDS011;5642;50.830;12.082;2023-05-07T05:11:22;4.53;;;4.13;;
11171;SDS011;5642;50.830;12.082;2023-05-07T05:13:52;4.85;;;4.43;;
11171;SDS011;5642;50.830;12.082;2023-05-07T05:16:22;4.90;;;4.47;;
11171;SDS011;5642;50.830;12.082;2023-05-07T05:18:51;4.45;;;4.03;;
11171;SDS011;5642;50.830;12.082;2023-05-07T05:21:22;4.72;;;4.20;;
11171;SDS011;5642;50.830;12.082;2023-05-07T05:23:50;4.32;;;3.92;;
11171;SDS011;5642;50.830;12.082;2023-05-07T05:26:20;4.47;;;4.07;;
11171;SDS011;5642;50.830;12.082;2023-05-07T05:28:48;4.57;;;4.15;;
11171;SDS011;5642;50.830;12.082;2023-05-07T05:31:17;4.65;;;4.25;;
11171;SDS011;5642;50.830;12.082;2023-05-07T05:33:45;4.43;;;4.03;;
11171;SDS011;5642;50.830;12.082;2023-05-07T05:36:22;4.65;;;4.03;;
11171;SDS011;5642;50.830;12.082;2023-05-07T05:38:52;5.05;;;4.55;;
11171;SDS011;5642;50.830;12.082;2023-05-07T05:41:23;4.35;;;3.95;;
11171;SDS011;5642;50.830;12.082;2023-05-07T05:43:55;4.32;;;3.92;;
11171;SDS011;5642;50.830;12.082;2023-05-07T05:46:24;3.83;;;3.53;;
11171;SDS011;5642;50.830;12.082;2023-05-07T05:48:56;4.60;;;4.20;;
11171;SDS011;5642;50.830;12.082;2023-05-07T05:51:26;5.07;;;4.10;;
11171;SDS011;5642;50.830;12.082;2023-05-07T05:53:55;4.40;;;4.00;;
11171;SDS011;5642;50.830;12.082;2023-05-07T05:56:24;4.30;;;3.90;;
11171;SDS011;5642;50.830;12.082;2023-05-07T05:58:53;4.70;;;3.85;;
11171;SDS011;5642;50.830;12.082;2023-05-07T06:01:23;4.43;;;4.03;;
11171;SDS011;5642;50.830;12.082;2023-05-07T06:03:57;4.97;;;4.47;;
11171;SDS011;5642;50.830;12.082;2023-05-07T06:06:27;4.15;;;3.75;;
11171;SDS011;5642;50.830;12.082;2023-05-07T06:08:58;4.55;;;3.85;;
11171;SDS011;5642;50.830;12.082;2023-05-07T06:11:28;4.35;;;3.95;;
11171;SDS011;5642;50.830;12.082;2023-05-07T06:14:03;4.47;;;3.80;;
11171;SDS011;5642;50.830;12.082;2023-05-07T06:16:36;4.30;;;3.90;;
11171;SDS011;5642;50.830;12.082;2023-05-07T06:19:07;4.47;;;4.07;;
11171;SDS011;5642;50.830;12.082;2023-05-07T07:21:30;3.75;;;3.45;;
11171;SDS011;5642;50.830;12.082;2023-05-07T07:24:00;4.30;;;3.75;;
11171;SDS011;5642;50.830;12.082;2023-05-07T07:26:33;3.92;;;3.53;;
11171;SDS011;5642;50.830;12.082;2023-05-07T07:29:07;3.58;;;3.28;;
11171;SDS011;5642;50.830;12.082;2023-05-07T07:31:38;3.92;;;3.58;;
11171;SDS011;5642;50.830;12.082;2023-05-07T07:34:09;3.70;;;3.40;;
11171;SDS011;5642;50.830;12.082;2023-05-07T07:36:39;3.75;;;3.45;;
11171;SDS011;5642;50.830;12.082;2023-05-07T07:39:11;3.88;;;3.58;;
11171;SDS011;5642;50.830;12.082;2023-05-07T07:41:50;3.58;;;3.28;;
11171;SDS011;5642;50.830;12.082;2023-05-07T07:44:20;3.47;;;3.17;;
11171;SDS011;5642;50.830;12.082;2023-05-07T07:46:48;3.50;;;3.20;;
11171;SDS011;5642;50.830;12.082;2023-05-07T07:49:21;3.80;;;3.40;;
11171;SDS011;5642;50.830;12.082;2023-05-07T07:51:49;3.88;;;3.47;;
11171;SDS011;5642;50.830;12.082;2023-05-07T07:54:20;3.80;;;3.50;;
11171;SDS011;5642;50.830;12.082;2023-05-07T07:56:48;3.80;;;3.40;;
11171;SDS011;5642;50.830;12.082;2023-05-07T07:59:28;3.45;;;3.15;;
11171;SDS011;5642;50.830;12.082;2023-05-07T08:01:58;3.20;;;3.00;;
11171;SDS011;5642;50.830;12.082;2023-05-07T08:04:32;3.25;;;2.95;;
11171;SDS011;5642;50.830;12.082;2023-05-07T08:06:59;3.55;;;3.25;;
11171;SDS011;5642;50.830;12.082;2023-05-07T08:09:31;3.45;;;3.15;;
11171;SDS011;5642;50.830;12.082;2023-05-07T08:12:09;3.78;;;3.45;;
11171;SDS011;5642;50.830;12.082;2023-05-07T08:14:41;3.75;;;3.45;;
11171;SDS011;5642;50.830;12.082;2023-05-07T08:17:11;3.53;;;3.22;;
11171;SDS011;5642;50.830;12.082;2023-05-07T08:19:49;3.60;;;3.30;;
11171;SDS011;5642;50.830;12.082;2023-05-07T08:22:28;3.55;;;3.25;;
11171;SDS011;5642;50.830;12.082;2023-05-07T08:24:54;3.90;;;3.50;;
11171;SDS011;5642;50.830;12.082;2023-05-07T08:27:24;4.10;;;3.70;;
11171;SDS011;5642;50.830;12.082;2023-05-07T08:29:56;3.55;;;3.25;;
11171;SDS011;5642;50.830;12.082;2023-05-07T08:32:30;4.00;;;3.60;;
11171;SDS011;5642;50.830;12.082;2023-05-07T08:35:02;3.80;;;3.50;;
11171;SDS011;5642;50.830;12.082;2023-05-07T08:37:38;3.95;;;3.55;;
11171;SDS011;5642;50.830;12.082;2023-05-07T08:40:12;3.63;;;3.33;;
11171;SDS011;5642;50.830;12.082;2023-05-07T08:42:43;3.90;;;3.60;;
11171;SDS011;5642;50.830;12.082;2023-05-07T08:45:13;3.97;;;3.50;;
11171;SDS011;5642;50.830;12.082;2023-05-07T08:47:46;3.92;;;3.63;;
11171;SDS011;5642;50.830;12.082;2023-05-07T08:50:22;3.70;;;3.40;;
11171;SDS011;5642;50.830;12.082;2023-05-07T08:52:58;3.70;;;3.40;;
11171;SDS011;5642;50.830;12.082;2023-05-07T08:55:34;3.55;;;3.25;;
11171;SDS011;5642;50.830;12.082;2023-05-07T08:58:07;3.50;;;3.20;;
11171;SDS011;5642;50.830;12.082;2023-05-07T09:00:38;3.85;;;3.40;;
11171;SDS011;5642;50.830;12.082;2023-05-07T09:03:07;3.63;;;3.33;;
11171;SDS011;5642;50.830;12.082;2023-05-07T09:05:42;3.80;;;3.50;;
11171;SDS011;5642;50.830;12.082;2023-05-07T09:08:14;3.60;;;3.30;;
11171;SDS011;5642;50.830;12.082;2023-05-07T09:10:43;3.88;;;2.88;;
11171;SDS011;5642;50.830;12.082;2023-05-07T09:13:19;3.58;;;3.28;;
11171;SDS011;5642;50.830;12.082;2023-05-07T09:15:51;2.95;;;2.72;;
11171;SDS011;5642;50.830;12.082;2023-05-07T09:18:25;3.38;;;3.08;;
11171;SDS011;5642;50.830;12.082;2023-05-07T09:20:57;3.97;;;3.33;;
11171;SDS011;5642;50.830;12.082;2023-05-07T09:23:37;3.05;;;2.83;;
11171;SDS011;5642;50.830;12.082;2023-05-07T09:26:06;3.33;;;3.03;;
11171;SDS011;5642;50.830;12.082;2023-05-07T09:28:43;3.58;;;3.28;;
11171;SDS011;5642;50.830;12.082;2023-05-07T09:31:11;3.50;;;3.20;;
11171;SDS011;5642;50.830;12.082;2023-05-07T09:33:44;3.13;;;2.90;;
11171;SDS011;5642;50.830;12.082;2023-05-07T09:36:25;3.30;;;3.00;;
11171;SDS011;5642;50.830;12.082;2023-05-07T09:38:59;3.08;;;2.88;;
11171;SDS011;5642;50.830;12.082;2023-05-07T09:41:43;3.53;;;3.22;;
11171;SDS011;5642;50.830;12.082;2023-05-07T09:44:20;3.50;;;3.20;;
11171;SDS011;5642;50.830;12.082;2023-05-07T09:47:00;3.50;;;3.20;;
11171;SDS011;5642;50.830;12.082;2023-05-07T09:49:33;3.30;;;3.00;;
11171;SDS011;5642;50.830;12.082;2023-05-07T09:52:07;3.30;;;3.00;;
11171;SDS011;5642;50.830;12.082;2023-05-07T09:54:46;4.07;;;3.67;;
11171;SDS011;5642;50.830;12.082;2023-05-07T09:57:25;3.78;;;3.25;;
11171;SDS011;5642;50.830;12.082;2023-05-07T09:59:57;3.80;;;3.40;;
11171;SDS011;5642;50.830;12.082;2023-05-07T10:02:26;3.60;;;3.30;;
11171;SDS011;5642;50.830;12.082;2023-05-07T10:04:58;3.20;;;2.90;;
11171;SDS011;5642;50.830;12.082;2023-05-07T10:07:33;3.28;;;2.97;;
11171;SDS011;5642;50.830;12.082;2023-05-07T10:10:07;3.53;;;3.22;;
11171;SDS011;5642;50.830;12.082;2023-05-07T10:12:41;3.30;;;3.00;;
11171;SDS011;5642;50.830;12.082;2023-05-07T10:15:11;3.13;;;2.83;;
11171;SDS011;5642;50.830;12.082;2023-05-07T10:17:50;3.40;;;3.10;;
11171;SDS011;5642;50.830;12.082;2023-05-07T10:20:32;3.22;;;2.95;;
11171;SDS011;5642;50.830;12.082;2023-05-07T10:23:08;3.08;;;2.78;;
11171;SDS011;5642;50.830;12.082;2023-05-07T10:25:45;2.92;;;2.67;;
11171;SDS011;5642;50.830;12.082;2023-05-07T10:28:23;2.80;;;2.60;;
11171;SDS011;5642;50.830;12.082;2023-05-07T10:34:00;2.85;;;2.65;;
11171;SDS011;5642;50.830;12.082;2023-05-07T10:36:46;2.38;;;2.17;;
11171;SDS011;5642;50.830;12.082;2023-05-07T10:39:23;2.40;;;2.20;;
11171;SDS011;5642;50.830;12.082;2023-05-07T10:41:55;2.75;;;2.55;;
11171;SDS011;5642;50.830;12.082;2023-05-07T10:44:30;2.40;;;2.20;;
11171;SDS011;5642;50.830;12.082;2023-05-07T10:47:05;2.10;;;2.00;;
11171;SDS011;5642;50.830;12.082;2023-05-07T10:52:20;2.45;;;2.25;;
11171;SDS011;5642;50.830;12.082;2023-05-07T11:01:04;2.95;;;2.75;;
11171;SDS011;5642;50.830;12.082;2023-05-07T11:04:12;2.65;;;2.45;;
11171;SDS011;5642;50.830;12.082;2023-05-07T11:15:14;2.08;;;1.98;;
11171;SDS011;5642;50.830;12.082;2023-05-07T11:17:57;2.20;;;2.10;;
11171;SDS011;5642;50.830;12.082;2023-05-07T11:26:10;2.03;;;1.92;;
11171;SDS011;5642;50.830;12.082;2023-05-07T11:28:41;1.98;;;1.88;;
11171;SDS011;5642;50.830;12.082;2023-05-07T11:31:17;2.40;;;2.20;;
11171;SDS011;5642;50.830;12.082;2023-05-07T11:33:58;2.25;;;2.05;;
11171;SDS011;5642;50.830;12.082;2023-05-07T11:36:30;2.00;;;1.90;;
11171;SDS011;5642;50.830;12.082;2023-05-07T11:39:02;2.03;;;1.92;;
11171;SDS011;5642;50.830;12.082;2023-05-07T11:41:35;2.15;;;2.03;;
11171;SDS011;5642;50.830;12.082;2023-05-07T11:44:12;2.10;;;2.00;;
11171;SDS011;5642;50.830;12.082;2023-05-07T11:46:48;2.17;;;2.08;;
11171;SDS011;5642;50.830;12.082;2023-05-07T11:49:24;2.15;;;2.05;;
11171;SDS011;5642;50.830;12.082;2023-05-07T11:52:05;1.95;;;1.85;;
11171;SDS011;5642;50.830;12.082;2023-05-07T11:54:48;1.92;;;1.83;;
11171;SDS011;5642;50.830;12.082;2023-05-07T11:57:28;2.03;;;1.92;;
11171;SDS011;5642;50.830;12.082;2023-05-07T12:00:00;1.88;;;1.77;;
11171;SDS011;5642;50.830;12.082;2023-05-07T12:02:36;2.00;;;1.90;;
11171;SDS011;5642;50.830;12.082;2023-05-07T12:05:05;2.15;;;2.05;;
11171;SDS011;5642;50.830;12.082;2023-05-07T12:07:35;2.45;;;2.25;;
11171;SDS011;5642;50.830;12.082;2023-05-07T12:10:12;1.75;;;1.65;;
11171;SDS011;5642;50.830;12.082;2023-05-07T12:12:47;1.80;;;1.70;;
11171;SDS011;5642;50.830;12.082;2023-05-07T12:15:23;2.00;;;1.90;;
11171;SDS011;5642;50.830;12.082;2023-05-07T12:17:54;1.55;;;1.45;;
11171;SDS011;5642;50.830;12.082;2023-05-07T12:20:27;1.70;;;1.60;;
11171;SDS011;5642;50.830;12.082;2023-05-07T12:23:06;1.95;;;1.85;;
11171;SDS011;5642;50.830;12.082;2023-05-07T12:25:37;1.50;;;1.40;;
11171;SDS011;5642;50.830;12.082;2023-05-07T12:28:13;1.55;;;1.45;;
11171;SDS011;5642;50.830;12.082;2023-05-07T12:30:50;1.63;;;1.52;;
11171;SDS011;5642;50.830;12.082;2023-05-07T12:33:24;1.70;;;1.60;;
11171;SDS011;5642;50.830;12.082;2023-05-07T12:36:03;1.70;;;1.60;;
11171;SDS011;5642;50.830;12.082;2023-05-07T12:38:40;1.52;;;1.35;;
11171;SDS011;5642;50.830;12.082;2023-05-07T12:41:20;1.60;;;1.50;;
11171;SDS011;5642;50.830;12.082;2023-05-07T12:44:05;1.58;;;1.48;;
11171;SDS011;5642;50.830;12.082;2023-05-07T12:46:43;1.58;;;1.48;;
11171;SDS011;5642;50.830;12.082;2023-05-07T12:49:15;1.73;;;1.63;;
11171;SDS011;5642;50.830;12.082;2023-05-07T12:51:46;1.58;;;1.48;;
11171;SDS011;5642;50.830;12.082;2023-05-07T12:57:15;1.88;;;1.77;;
11171;SDS011;5642;50.830;12.082;2023-05-07T12:59:47;1.80;;;1.70;;
11171;SDS011;5642;50.830;12.082;2023-05-07T13:02:14;1.80;;;1.70;;
11171;SDS011;5642;50.830;12.082;2023-05-07T13:04:44;1.60;;;1.50;;
11171;SDS011;5642;50.830;12.082;2023-05-07T13:07:24;1.70;;;1.60;;
11171;SDS011;5642;50.830;12.082;2023-05-07T13:10:09;1.63;;;1.52;;
11171;SDS011;5642;50.830;12.082;2023-05-07T13:12:38;1.63;;;1.52;;
11171;SDS011;5642;50.830;12.082;2023-05-07T13:15:13;1.60;;;1.50;;
11171;SDS011;5642;50.830;12.082;2023-05-07T13:17:41;1.45;;;1.40;;
11171;SDS011;5642;50.830;12.082;2023-05-07T13:20:14;1.60;;;1.50;;
11171;SDS011;5642;50.830;12.082;2023-05-07T15:24:43;2.58;;;2.38;;
11171;SDS011;5642;50.830;12.082;2023-05-07T15:27:13;1.98;;;1.88;;
11171;SDS011;5642;50.830;12.082;2023-05-07T15:29:49;2.00;;;1.90;;
11171;SDS011;5642;50.830;12.082;2023-05-07T15:32:26;2.33;;;2.13;;
11171;SDS011;5642;50.830;12.082;2023-05-07T15:34:55;2.05;;;1.95;;
11171;SDS011;5642;50.830;12.082;2023-05-07T15:37:28;1.75;;;1.65;;
11171;SDS011;5642;50.830;12.082;2023-05-07T15:40:03;2.28;;;2.08;;
11171;SDS011;5642;50.830;12.082;2023-05-07T15:42:40;2.08;;;1.90;;
11171;SDS011;5642;50.830;12.082;2023-05-07T15:45:19;1.95;;;1.85;;
11171;SDS011;5642;50.830;12.082;2023-05-07T15:47:53;2.20;;;2.00;;
11171;SDS011;5642;50.830;12.082;2023-05-07T15:50:29;1.98;;;1.88;;
11171;SDS011;5642;50.830;12.082;2023-05-07T15:53:03;2.15;;;2.03;;
11171;SDS011;5642;50.830;12.082;2023-05-07T15:55:36;2.40;;;2.20;;
11171;SDS011;5642;50.830;12.082;2023-05-07T15:58:09;1.90;;;1.80;;
11171;SDS011;5642;50.830;12.082;2023-05-07T16:00:54;2.00;;;1.90;;
11171;SDS011;5642;50.830;12.082;2023-05-07T16:03:22;2.10;;;2.00;;
11171;SDS011;5642;50.830;12.082;2023-05-07T16:06:08;1.92;;;1.83;;
11171;SDS011;5642;50.830;12.082;2023-05-07T16:08:41;1.90;;;1.80;;
11171;SDS011;5642;50.830;12.082;2023-05-07T16:11:15;1.90;;;1.80;;
11171;SDS011;5642;50.830;12.082;2023-05-07T16:13:57;1.92;;;1.83;;
11171;SDS011;5642;50.830;12.082;2023-05-07T16:16:33;1.90;;;1.80;;
11171;SDS011;5642;50.830;12.082;2023-05-07T16:19:07;1.85;;;1.75;;
11171;SDS011;5642;50.830;12.082;2023-05-07T16:21:37;1.80;;;1.70;;
11171;SDS011;5642;50.830;12.082;2023-05-07T16:24:13;2.38;;;1.85;;
11171;SDS011;5642;50.830;12.082;2023-05-07T16:26:48;1.83;;;1.73;;
11171;SDS011;5642;50.830;12.082;2023-05-07T16:29:14;1.80;;;1.70;;
11171;SDS011;5642;50.830;12.082;2023-05-07T16:31:40;1.95;;;1.85;;
11171;SDS011;5642;50.830;12.082;2023-05-07T16:34:07;2.25;;;2.10;;
11171;SDS011;5642;50.830;12.082;2023-05-07T16:36:33;2.15;;;2.05;;
11171;SDS011;5642;50.830;12.082;2023-05-07T16:38:59;2.00;;;1.90;;
11171;SDS011;5642;50.830;12.082;2023-05-07T16:41:25;2.17;;;2.08;;
11171;SDS011;5642;50.830;12.082;2023-05-07T16:43:52;2.10;;;2.00;;
11171;SDS011;5642;50.830;12.082;2023-05-07T18:24:24;2.28;;;2.05;;
11171;SDS011;5642;50.830;12.082;2023-05-07T18:26:51;1.83;;;1.73;;
11171;SDS011;5642;50.830;12.082;2023-05-07T18:29:17;1.77;;;1.67;;
11171;SDS011;5642;50.830;12.082;2023-05-07T18:31:43;1.75;;;1.65;;
11171;SDS011;5642;50.830;12.082;2023-05-07T18:34:10;1.80;;;1.70;;
11171;SDS011;5642;50.830;12.082;2023-05-07T18:36:36;2.00;;;1.90;;
11171;SDS011;5642;50.830;12.082;2023-05-07T18:39:03;1.92;;;1.80;;
11171;SDS011;5642;50.830;12.082;2023-05-07T18:41:29;2.70;;;1.70;;
11171;SDS011;5642;50.830;12.082;2023-05-07T18:43:55;1.83;;;1.73;;
11171;SDS011;5642;50.830;12.082;2023-05-07T18:46:21;1.70;;;1.60;;
11171;SDS011;5642;50.830;12.082;2023-05-07T18:48:47;1.77;;;1.67;;
11171;SDS011;5642;50.830;12.082;2023-05-07T18:51:13;1.67;;;1.58;;
11171;SDS011;5642;50.830;12.082;2023-05-07T18:53:39;1.77;;;1.67;;
11171;SDS011;5642;50.830;12.082;2023-05-07T18:56:06;1.70;;;1.60;;
11171;SDS011;5642;50.830;12.082;2023-05-07T18:58:33;1.65;;;1.55;;
11171;SDS011;5642;50.830;12.082;2023-05-07T19:00:59;1.80;;;1.70;;
11171;SDS011;5642;50.830;12.082;2023-05-07T19:03:27;1.95;;;1.85;;
11171;SDS011;5642;50.830;12.082;2023-05-07T19:05:58;1.85;;;1.70;;
11171;SDS011;5642;50.830;12.082;2023-05-07T19:08:27;1.98;;;1.88;;
11171;SDS011;5642;50.830;12.082;2023-05-07T19:10:56;1.75;;;1.65;;
11171;SDS011;5642;50.830;12.082;2023-05-07T19:13:22;1.73;;;1.63;;
11171;SDS011;5642;50.830;12.082;2023-05-07T19:15:52;1.73;;;1.63;;
11171;SDS011;5642;50.830;12.082;2023-05-07T19:18:18;2.33;;;2.13;;
11171;SDS011;5642;50.830;12.082;2023-05-07T19:20:45;2.40;;;2.20;;
11171;SDS011;5642;50.830;12.082;2023-05-07T19:23:12;1.90;;;1.80;;
11171;SDS011;5642;50.830;12.082;2023-05-07T21:25:09;2.20;;;2.05;;
11171;SDS011;5642;50.830;12.082;2023-05-07T21:27:35;2.33;;;2.22;;
11171;SDS011;5642;50.830;12.082;2023-05-07T21:30:01;2.58;;;2.38;;
11171;SDS011;5642;50.830;12.082;2023-05-07T21:32:31;2.50;;;2.30;;
11171;SDS011;5642;50.830;12.082;2023-05-07T21:34:58;2.67;;;2.47;;
11171;SDS011;5642;50.830;12.082;2023-05-07T21:37:25;2.35;;;2.20;;
11171;SDS011;5642;50.830;12.082;2023-05-07T21:39:51;2.10;;;2.00;;
11171;SDS011;5642;50.830;12.082;2023-05-07T21:42:17;2.72;;;2.53;;
11171;SDS011;5642;50.830;12.082;2023-05-07T21:44:43;3.00;;;2.75;;
11171;SDS011;5642;50.830;12.082;2023-05-07T21:47:09;2.83;;;2.63;;
11171;SDS011;5642;50.830;12.082;2023-05-07T21:49:36;3.00;;;2.80;;
11171;SDS011;5642;50.830;12.082;2023-05-07T21:52:02;2.70;;;2.50;;
11171;SDS011;5642;50.830;12.082;2023-05-07T21:54:28;2.80;;;2.60;;
11171;SDS011;5642;50.830;12.082;2023-05-07T21:56:54;2.70;;;2.50;;
11171;SDS011;5642;50.830;12.082;2023-05-07T21:59:20;2.60;;;2.40;;
11171;SDS011;5642;50.830;12.082;2023-05-07T22:01:46;2.88;;;2.67;;
11171;SDS011;5642;50.830;12.082;2023-05-07T22:04:12;2.75;;;2.55;;
11171;SDS011;5642;50.830;12.082;2023-05-07T22:06:39;2.75;;;2.55;;
11171;SDS011;5642;50.830;12.082;2023-05-07T22:09:05;2.47;;;2.38;;
11171;SDS011;5642;50.830;12.082;2023-05-07T22:11:32;2.78;;;2.58;;
11171;SDS011;5642;50.830;12.082;2023-05-07T22:13:58;2.60;;;2.40;;
11171;SDS011;5642;50.830;12.082;2023-05-07T22:16:25;2.78;;;2.58;;
11171;SDS011;5642;50.830;12.082;2023-05-07T22:18:51;2.65;;;2.45;;
11171;SDS011;5642;50.830;12.082;2023-05-07T22:21:17;2.53;;;2.33;;
11171;SDS011;5642;50.830;12.082;2023-05-07T22:23:43;2.42;;;2.22;;
11171;SDS011;5642;50.830;12.082;2023-05-07T23:27:29;2.70;;;2.50;;
11171;SDS011;5642;50.830;12.082;2023-05-07T23:29:56;2.60;;;2.40;;
11171;SDS011;5642;50.830;12.082;2023-05-07T23:32:23;2.55;;;2.35;;
11171;SDS011;5642;50.830;12.082;2023-05-07T23:34:49;2.60;;;2.40;;
11171;SDS011;5642;50.830;12.082;2023-05-07T23:37:18;2.70;;;2.50;;
11171;SDS011;5642;50.830;12.082;2023-05-07T23:39:44;2.70;;;2.50;;
11171;SDS011;5642;50.830;12.082;2023-05-07T23:42:11;2.75;;;2.55;;
11171;SDS011;5642;50.830;12.082;2023-05-07T23:44:38;2.75;;;2.55;;
11171;SDS011;5642;50.830;12.082;2023-05-07T23:47:04;2.55;;;2.40;;
11171;SDS011;5642;50.830;12.082;2023-05-07T23:49:30;2.85;;;2.65;;
11171;SDS011;5642;50.830;12.082;2023-05-07T23:51:57;2.90;;;2.60;;
11171;SDS011;5642;50.830;12.082;2023-05-07T23:54:24;2.88;;;2.67;;
11171;SDS011;5642;50.830;12.082;2023-05-07T23:56:51;2.83;;;2.60;;
11171;SDS011;5642;50.830;12.082;2023-05-07T23:59:17;2.67;;;2.47;;
